Morveren — WDF6112 — position and weather

sailwx.info

Track history (hours):
 
Tides and Currents Weather Stations Pressure Air Temp Water Temp Dewpoint Dewpoint Depression Visibility Wind Speed Wind Dir Waves Ship Positions

Morveren

Owner: Demelza Charters LLP, Bellingham, WA. More information available from US FCC via Universal Licensing System and Coast Guard Vessel Documentation Center.

Last reported at 2017-Oct-09 23:13 UTC. Time now 2017-Oct-20 16:14 UTC.
Position N 48°36' W 122°45'.
Warning: this ship's position is 10 days out of date.

Length 16 m.

Type: Pleasure craft. MMSI: 367470770.

Date/timePositionNaut miles runAvg speedWind from/ knotsBaromVisibWave heightAir tempDewpointWater temp
2017-Oct-09 23:13N 48°36' W 122°45'2 8.3
2017-Oct-09 22:59N 48°36' W 122°48'4 8.9
2017-Oct-09 22:29N 48°34' W 122°54'4 7.9
2017-Oct-09 22:01N 48°32' W 122°59'1 1.9
2017-Oct-09 21:24N 48°32' W 123°01'0 0.0
2017-Oct-09 20:54N 48°32' W 123°01'0 0.0
2017-Oct-09 19:30N 48°32' W 123°01'20 1.0
2017-Oct-08 23:10N 48°47' W 123°22'1 7.2
2017-Oct-08 23:00N 48°48' W 123°23'4 7.0
2017-Oct-08 22:29N 48°51' W 123°24'2 4.0
2017-Oct-08 21:57N 48°54' W 123°24'0 0.0
2017-Oct-08 21:27N 48°53' W 123°24'0 0.0
2017-Oct-08 20:44N 48°53' W 123°24'0 0.0
2017-Oct-08 20:14N 48°53' W 123°24'0 0.0
2017-Oct-08 19:56N 48°53' W 123°24'0 0.0
2017-Oct-08 19:29N 48°53' W 123°24'3 5.3
2017-Oct-08 19:00N 48°51' W 123°22'3 5.8
2017-Oct-08 18:30N 48°48' W 123°21'  
2017-Oct-03 06:23N 48°46' W 123°27'  
Track history (hours):
 
Tides and Currents Weather Stations Pressure Air Temp Water Temp Dewpoint Dewpoint Depression Visibility Wind Speed Wind Dir Waves Ship Positions

Morveren

Owner: Demelza Charters LLP, Bellingham, WA. More information available from US FCC via Universal Licensing System and Coast Guard Vessel Documentation Center.

Last reported at 2017-Oct-09 23:13 UTC. Time now 2017-Oct-20 16:14 UTC.
Position N 48°36' W 122°45'.
Warning: this ship's position is 10 days out of date.

Length 16 m.

Type: Pleasure craft. MMSI: 367470770.

Date/timePositionNaut miles runAvg speedWind from/ knotsBaromVisibWave heightAir tempDewpointWater temp
2017-Oct-09 23:13N 48°36' W 122°45'2 8.3
2017-Oct-09 22:59N 48°36' W 122°48'4 8.9
2017-Oct-09 22:29N 48°34' W 122°54'4 7.9
2017-Oct-09 22:01N 48°32' W 122°59'1 1.9
2017-Oct-09 21:24N 48°32' W 123°01'0 0.0
2017-Oct-09 20:54N 48°32' W 123°01'0 0.0
2017-Oct-09 19:30N 48°32' W 123°01'20 1.0
2017-Oct-08 23:10N 48°47' W 123°22'1 7.2
2017-Oct-08 23:00N 48°48' W 123°23'4 7.0
2017-Oct-08 22:29N 48°51' W 123°24'2 4.0
2017-Oct-08 21:57N 48°54' W 123°24'0 0.0
2017-Oct-08 21:27N 48°53' W 123°24'0 0.0
2017-Oct-08 20:44N 48°53' W 123°24'0 0.0
2017-Oct-08 20:14N 48°53' W 123°24'0 0.0
2017-Oct-08 19:56N 48°53' W 123°24'0 0.0
2017-Oct-08 19:29N 48°53' W 123°24'3 5.3
2017-Oct-08 19:00N 48°51' W 123°22'3 5.8
2017-Oct-08 18:30N 48°48' W 123°21'  
2017-Oct-03 06:23N 48°46' W 123°27'  

Dump ship's entire track history